createdAt,value
2022-12-28T00:11:30.187Z,7.27
2022-12-28T00:26:37.178Z,6.47
2022-12-28T00:41:40.945Z,8.40
2022-12-28T00:56:45.496Z,7.67
2022-12-28T01:11:51.933Z,8.33
2022-12-28T01:26:56.083Z,7.67
2022-12-28T01:42:00.278Z,9.23
2022-12-28T01:57:04.989Z,9.60
2022-12-28T02:12:10.907Z,10.97
2022-12-28T02:27:33.051Z,10.70
2022-12-28T02:42:37.906Z,11.10
2022-12-28T02:57:47.961Z,9.83
2022-12-28T03:12:58.948Z,9.10
2022-12-28T03:28:24.475Z,8.87
2022-12-28T03:43:43.721Z,9.27
2022-12-28T03:58:53.628Z,8.83
2022-12-28T04:14:04.219Z,8.17
2022-12-28T04:29:15.191Z,7.77
2022-12-28T04:44:45.747Z,7.50
2022-12-28T04:59:49.954Z,7.20
2022-12-28T05:14:54.511Z,6.73
2022-12-28T05:29:58.709Z,7.17
2022-12-28T05:45:02.872Z,6.80
2022-12-28T06:00:08.005Z,5.50
2022-12-28T06:15:18.109Z,5.27
2022-12-28T06:30:22.372Z,5.97
2022-12-28T06:45:26.716Z,5.87
2022-12-28T07:00:30.914Z,5.73
2022-12-28T07:15:36.627Z,6.40
2022-12-28T07:30:41.122Z,6.80
2022-12-28T07:45:45.426Z,7.23
2022-12-28T08:00:49.855Z,8.00
2022-12-28T08:15:56.947Z,9.27
2022-12-28T08:31:05.898Z,9.20
2022-12-28T08:46:13.238Z,8.67
2022-12-28T09:01:19.424Z,9.53
2022-12-28T09:16:26.411Z,9.23
2022-12-28T09:31:31.819Z,8.63
2022-12-28T09:46:37.971Z,7.07
2022-12-28T10:01:42.876Z,8.00
2022-12-28T10:16:48.961Z,8.57
2022-12-28T10:31:59.320Z,7.13
2022-12-28T10:47:04.807Z,8.30
2022-12-28T11:02:27.686Z,9.33
2022-12-28T11:17:35.405Z,10.53
2022-12-28T11:32:43.806Z,12.50
2022-12-28T11:47:47.984Z,12.00
2022-12-28T12:02:57.217Z,11.60
2022-12-28T12:18:01.460Z,12.10
2022-12-28T12:33:13.504Z,16.43
2022-12-28T12:48:36.086Z,11.80
2022-12-28T13:03:46.401Z,12.97
2022-12-28T13:19:00.661Z,17.10
2022-12-28T13:34:16.873Z,16.50
2022-12-28T13:49:21.733Z,16.40
2022-12-28T14:04:52.341Z,17.23
2022-12-28T14:19:52.878Z,17.57
2022-12-28T14:35:00.181Z,17.17
2022-12-28T14:50:26.668Z,17.60
2022-12-28T15:05:57.167Z,16.90
2022-12-28T15:21:04.965Z,16.53
2022-12-28T15:36:17.113Z,18.70
2022-12-28T15:51:23.235Z,18.57
2022-12-28T16:06:27.788Z,17.20
2022-12-28T16:21:31.844Z,23.70
2022-12-28T16:36:39.376Z,28.67
2022-12-28T16:51:45.126Z,27.63
2022-12-28T17:06:51.453Z,29.30
2022-12-28T17:21:55.788Z,36.70
2022-12-28T17:37:00.185Z,35.27
2022-12-28T17:52:07.448Z,32.90
2022-12-28T18:07:13.297Z,37.77
2022-12-28T18:22:17.890Z,36.33
2022-12-28T18:37:22.194Z,33.90
2022-12-28T18:52:26.500Z,28.97
2022-12-28T19:07:31.058Z,35.27
2022-12-28T19:22:35.233Z,40.30
2022-12-28T19:37:42.747Z,35.17
2022-12-28T19:52:49.634Z,42.77
2022-12-28T20:07:53.926Z,41.57
2022-12-28T20:22:58.320Z,48.17
2022-12-28T20:38:02.614Z,36.73
2022-12-28T20:53:07.406Z,26.50
2022-12-28T21:08:11.617Z,27.97
2022-12-28T21:23:16.049Z,36.20
2022-12-28T21:38:20.449Z,33.33
2022-12-28T21:53:25.031Z,40.00
2022-12-28T22:08:48.516Z,38.10
2022-12-28T22:23:52.697Z,39.03
2022-12-28T22:38:57.024Z,37.37
2022-12-28T22:54:01.191Z,34.93
2022-12-28T23:09:05.039Z,34.73
2022-12-28T23:24:34.761Z,33.77
2022-12-28T23:39:38.850Z,28.70
2022-12-28T23:54:43.113Z,27.13
